Time;durP1;ratioP1;P1;durP2;ratioP2;P2;SDS_P1;SDS_P2;PMS_P1;PMS_P2;Temp;Humidity;BMP_temperature;BMP_pressure;BME280_temperature;BME280_humidity;BME280_pressure;Samples;Min_cycle;Max_cycle;Signal;HPM_P1;HPM_P2
2021/09/07 00:02:10;;;;;;;43.58;25.00;;;;;;;27.00;46.82;101431.09;4447795;32;20147;-68
2021/09/07 00:04:36;;;;;;;38.15;24.00;;;;;;;26.95;46.86;101429.03;4451547;32;20081;-68
2021/09/07 00:07:02;;;;;;;42.75;25.75;;;;;;;26.93;46.74;101432.47;4448604;32;20067;-68
2021/09/07 00:09:28;;;;;;;46.05;25.05;;;;;;;27.00;46.57;101431.09;4444749;32;20130;-69
2021/09/07 00:11:54;;;;;;;47.72;26.87;;;;;;;26.92;46.42;101424.31;4443565;32;20033;-68
2021/09/07 00:14:20;;;;;;;44.40;27.40;;;;;;;27.02;46.46;101432.12;4444020;32;20423;-68
2021/09/07 00:16:46;;;;;;;42.70;26.00;;;;;;;26.96;46.57;101436.38;4444010;32;20049;-68
2021/09/07 00:19:12;;;;;;;46.50;26.05;;;;;;;27.04;46.32;101423.72;4447687;32;20071;-68
2021/09/07 00:21:37;;;;;;;42.95;25.58;;;;;;;27.04;46.13;101417.16;4432767;32;20049;-69
2021/09/07 00:24:04;;;;;;;40.28;23.52;;;;;;;26.96;46.30;101424.81;4446009;32;20033;-68
2021/09/07 00:26:30;;;;;;;38.35;23.65;;;;;;;26.98;46.32;101416.41;4442953;32;20142;-68
2021/09/07 00:28:56;;;;;;;46.70;26.17;;;;;;;26.90;46.58;101424.06;4446997;32;21906;-69
2021/09/07 00:31:21;;;;;;;41.05;25.33;;;;;;;26.87;46.72;101411.50;4444178;32;20095;-68
2021/09/07 00:33:47;;;;;;;47.35;26.75;;;;;;;26.94;46.43;101418.81;4441572;32;20549;-68
2021/09/07 00:36:13;;;;;;;48.67;26.65;;;;;;;26.80;46.69;101420.75;4446650;32;20046;-69
2021/09/07 00:38:38;;;;;;;49.58;26.52;;;;;;;26.84;46.28;101415.44;4431307;32;20080;-68
2021/09/07 00:41:06;;;;;;;45.83;26.77;;;;;;;26.88;46.46;101418.81;4444748;32;20141;-68
2021/09/07 00:43:31;;;;;;;43.17;26.23;;;;;;;26.90;46.32;101409.63;4448398;32;20085;-68
2021/09/07 00:45:58;;;;;;;42.78;26.52;;;;;;;26.92;46.38;101402.00;4447992;32;20548;-68
2021/09/07 00:48:24;;;;;;;44.92;25.98;;;;;;;26.76;46.56;101405.00;4444319;32;20433;-68
2021/09/07 00:50:49;;;;;;;48.08;28.15;;;;;;;26.82;46.48;101400.75;4448474;32;20529;-68
2021/09/07 00:53:15;;;;;;;50.75;29.55;;;;;;;26.84;46.51;101403.91;4445086;32;20119;-69
2021/09/07 00:55:45;;;;;;;50.05;29.75;;;;;;;26.87;46.47;101396.25;4443007;32;20060;-69
2021/09/07 00:58:13;;;;;;;51.37;29.52;;;;;;;27.02;46.22;101402.44;4444984;32;20055;-68
2021/09/07 01:00:43;;;;;;;45.30;27.48;;;;;;;26.83;46.61;101390.00;4447334;32;20156;-68
2021/09/07 01:03:10;;;;;;;40.12;24.48;;;;;;;26.76;46.57;101399.25;4443440;32;20071;-68
2021/09/07 01:05:36;;;;;;;45.92;25.02;;;;;;;26.60;46.70;101397.22;4442576;32;20133;-68
2021/09/07 01:08:02;;;;;;;43.80;26.15;;;;;;;26.63;46.46;101402.72;4445086;32;20537;-68
2021/09/07 01:10:28;;;;;;;45.30;26.50;;;;;;;26.58;46.58;101391.19;4445956;32;20076;-68
2021/09/07 01:12:55;;;;;;;44.42;26.58;;;;;;;26.36;46.84;101400.78;4446904;32;20255;-68
2021/09/07 01:15:21;;;;;;;44.40;25.52;;;;;;;26.20;47.28;101400.88;4446583;32;20129;-68
2021/09/07 01:17:47;;;;;;;49.38;28.02;;;;;;;26.18;47.21;101398.50;4445857;32;20519;-69
2021/09/07 01:20:13;;;;;;;45.05;27.20;;;;;;;26.09;47.22;101389.34;4448042;32;20041;-69
2021/09/07 01:22:39;;;;;;;49.00;27.85;;;;;;;26.22;47.18;101392.44;4445961;32;20091;-68
2021/09/07 01:25:05;;;;;;;48.22;27.87;;;;;;;26.24;47.01;101379.06;4444044;32;20478;-68
2021/09/07 01:27:32;;;;;;;50.15;28.35;;;;;;;26.19;47.42;101390.63;4444782;32;20594;-68
2021/09/07 01:29:57;;;;;;;46.30;26.90;;;;;;;26.30;47.01;101384.81;4447348;32;20730;-69
2021/09/07 01:32:23;;;;;;;50.25;29.40;;;;;;;26.05;47.50;101378.09;4442704;32;20107;-68
2021/09/07 01:34:49;;;;;;;51.53;28.05;;;;;;;26.02;47.45;101379.19;4442004;32;20166;-69
2021/09/07 01:37:15;;;;;;;48.45;29.05;;;;;;;26.06;47.31;101390.41;4448145;32;20072;-68
2021/09/07 01:39:41;;;;;;;48.28;28.33;;;;;;;25.90;47.62;101376.81;4446098;32;20095;-68
2021/09/07 01:42:07;;;;;;;48.53;29.37;;;;;;;25.96;47.71;101386.25;4446193;32;20029;-68
2021/09/07 01:44:33;;;;;;;50.30;29.30;;;;;;;26.08;47.50;101384.91;4446984;32;20071;-68
2021/09/07 01:47:00;;;;;;;49.70;29.80;;;;;;;26.06;47.48;101385.44;4446133;32;20080;-68
2021/09/07 01:49:26;;;;;;;58.33;30.77;;;;;;;26.25;47.19;101391.38;4446371;32;20087;-68
2021/09/07 01:51:52;;;;;;;54.50;30.70;;;;;;;26.16;47.30;101388.78;4441619;32;20101;-68
2021/09/07 01:54:21;;;;;;;57.70;30.05;;;;;;;26.17;47.36;101399.03;4443561;32;20426;-68
2021/09/07 01:56:46;;;;;;;49.38;28.92;;;;;;;26.08;47.41;101384.91;4445812;32;20045;-68
2021/09/07 01:59:12;;;;;;;53.22;29.98;;;;;;;25.90;47.55;101392.03;4446463;32;20073;-68
2021/09/07 02:01:38;;;;;;;51.28;29.65;;;;;;;26.02;47.47;101387.84;4442265;32;20543;-68
2021/09/07 02:04:04;;;;;;;55.45;29.70;;;;;;;26.08;47.11;101387.81;4443882;32;20413;-68
2021/09/07 02:06:30;;;;;;;55.90;28.10;;;;;;;26.11;47.09;101387.50;4448691;32;20020;-68
2021/09/07 02:08:55;;;;;;;52.05;28.90;;;;;;;26.12;47.09;101379.63;4441215;32;20030;-68
2021/09/07 02:11:21;;;;;;;50.78;30.48;;;;;;;26.10;47.13;101379.37;4442504;32;20096;-68
2021/09/07 02:13:47;;;;;;;53.05;29.17;;;;;;;26.04;47.35;101388.06;4440686;32;20070;-68
2021/09/07 02:16:12;;;;;;;56.50;31.73;;;;;;;26.05;47.33;101391.75;4442845;32;20032;-68
2021/09/07 02:18:38;;;;;;;52.08;29.90;;;;;;;26.01;47.16;101383.34;4443649;32;20077;-68
2021/09/07 02:21:04;;;;;;;58.10;31.23;;;;;;;26.08;47.05;101382.78;4443348;32;20049;-68
2021/09/07 02:23:30;;;;;;;53.78;30.98;;;;;;;26.07;47.04;101387.00;4446178;32;20038;-68
2021/09/07 02:25:55;;;;;;;51.80;30.00;;;;;;;26.10;46.92;101385.94;4441306;32;20362;-68
2021/09/07 02:28:21;;;;;;;56.63;32.28;;;;;;;26.04;47.09;101378.63;4443621;32;20153;-68
2021/09/07 02:30:46;;;;;;;58.75;32.60;;;;;;;26.10;46.87;101380.16;4444153;32;20518;-68
2021/09/07 02:33:12;;;;;;;67.53;33.00;;;;;;;25.97;47.12;101374.19;4444947;32;20086;-68
2021/09/07 02:35:38;;;;;;;57.20;32.58;;;;;;;26.09;46.77;101372.06;4441418;32;20175;-68
2021/09/07 02:38:04;;;;;;;54.75;32.65;;;;;;;25.97;46.88;101373.38;4446065;32;20041;-68
2021/09/07 02:40:30;;;;;;;53.80;30.73;;;;;;;26.09;46.84;101374.94;4440470;32;20045;-68
2021/09/07 02:42:56;;;;;;;55.08;30.90;;;;;;;26.03;46.87;101372.09;4446531;32;20045;-68
2021/09/07 02:45:22;;;;;;;55.12;31.77;;;;;;;25.96;46.83;101366.06;4442215;32;20048;-68
2021/09/07 02:47:48;;;;;;;61.70;32.90;;;;;;;25.95;46.80;101373.16;4445998;32;20639;-68
2021/09/07 02:50:15;;;;;;;57.28;33.78;;;;;;;25.88;47.05;101373.69;4441904;32;20376;-68
2021/09/07 02:52:42;;;;;;;59.55;31.98;;;;;;;25.98;46.89;101380.78;4430491;32;20480;-68
2021/09/07 02:55:11;;;;;;;59.78;32.72;;;;;;;25.77;47.13;101373.72;4441113;32;20414;-68
2021/09/07 02:57:36;;;;;;;56.28;33.05;;;;;;;25.93;46.90;101375.75;4440493;32;20034;-68
2021/09/07 03:00:04;;;;;;;57.92;32.25;;;;;;;25.65;47.29;101373.00;4442617;32;20107;-68
2021/09/07 03:02:30;;;;;;;58.75;32.47;;;;;;;25.66;47.48;101368.78;4440031;32;20076;-68
2021/09/07 03:04:55;;;;;;;62.13;32.50;;;;;;;25.60;47.46;101376.66;4443555;32;20389;-68
2021/09/07 03:07:21;;;;;;;59.90;32.58;;;;;;;25.52;47.62;101375.63;4446011;32;20072;-68
2021/09/07 03:09:47;;;;;;;60.40;32.35;;;;;;;25.37;47.98;101375.13;4446572;32;20096;-68
2021/09/07 03:12:13;;;;;;;63.60;32.88;;;;;;;25.29;47.95;101379.84;4441497;32;20101;-68
2021/09/07 03:14:38;;;;;;;60.40;33.00;;;;;;;25.30;47.96;101373.56;4446236;32;20084;-68
2021/09/07 03:17:04;;;;;;;61.60;33.53;;;;;;;25.35;47.78;101374.88;4442172;32;20482;-68
2021/09/07 03:19:30;;;;;;;60.17;33.50;;;;;;;25.26;47.89;101375.91;4441427;32;20513;-68
2021/09/07 03:21:56;;;;;;;62.08;34.13;;;;;;;25.46;47.57;101374.84;4441891;32;20081;-68
2021/09/07 03:24:21;;;;;;;68.07;36.25;;;;;;;25.46;47.54;101371.19;4444400;32;20045;-68
2021/09/07 03:26:47;;;;;;;70.87;37.10;;;;;;;25.37;47.61;101371.47;4442808;32;20358;-68
2021/09/07 03:29:13;;;;;;;74.15;37.13;;;;;;;25.20;47.89;101366.50;4444677;32;20042;-68
2021/09/07 03:31:39;;;;;;;72.40;37.15;;;;;;;25.21;48.14;101353.66;4444001;32;20498;-68
2021/09/07 03:34:05;;;;;;;67.87;37.42;;;;;;;25.18;48.26;101360.47;4441108;32;20061;-68
2021/09/07 03:36:30;;;;;;;70.07;36.42;;;;;;;25.05;48.73;101354.47;4440324;32;21475;-68
2021/09/07 03:38:56;;;;;;;69.37;37.85;;;;;;;25.28;48.24;101358.09;4443561;32;20038;-68
2021/09/07 03:41:22;;;;;;;69.62;37.28;;;;;;;25.29;48.02;101359.66;4446063;32;20427;-68
2021/09/07 03:43:48;;;;;;;76.85;39.10;;;;;;;25.38;48.05;101353.66;4447986;32;20111;-68
2021/09/07 03:46:14;;;;;;;64.15;35.95;;;;;;;25.51;47.88;101353.09;4441684;32;20064;-68
2021/09/07 03:48:40;;;;;;;67.97;37.28;;;;;;;25.43;47.90;101349.19;4441904;32;20073;-68
2021/09/07 03:51:06;;;;;;;62.80;35.40;;;;;;;25.41;47.55;101351.81;4446526;32;20068;-68
2021/09/07 03:53:32;;;;;;;66.03;37.28;;;;;;;25.46;47.36;101351.78;4441656;32;20045;-68
2021/09/07 03:55:58;;;;;;;68.70;38.35;;;;;;;25.57;47.24;101348.91;4429556;32;20033;-68
2021/09/07 03:58:24;;;;;;;67.53;38.58;;;;;;;25.38;47.51;101354.44;4445743;32;20377;-68
2021/09/07 04:00:50;;;;;;;72.25;38.38;;;;;;;25.31;47.45;101348.38;4431225;32;20084;-68
2021/09/07 04:03:18;;;;;;;72.78;38.92;;;;;;;25.45;47.25;101350.22;4444052;32;20063;-68
2021/09/07 04:05:44;;;;;;;74.47;39.97;;;;;;;25.48;47.37;101354.16;4449134;32;20055;-68
2021/09/07 04:08:10;;;;;;;75.05;40.58;;;;;;;25.34;47.59;101356.81;4443087;32;20452;-68
2021/09/07 04:10:37;;;;;;;76.30;39.58;;;;;;;25.30;47.74;101346.81;4446912;32;20080;-68
2021/09/07 04:13:03;;;;;;;73.47;37.50;;;;;;;25.17;48.16;101350.28;4441301;32;20044;-68
2021/09/07 04:15:29;;;;;;;69.93;38.50;;;;;;;25.20;47.87;101352.09;4442537;32;20085;-68
2021/09/07 04:17:54;;;;;;;70.32;37.83;;;;;;;25.10;48.13;101341.38;4441922;32;20069;-68
2021/09/07 04:20:21;;;;;;;73.55;39.65;;;;;;;25.05;48.26;101342.16;4442658;32;20081;-68
2021/09/07 04:22:47;;;;;;;76.10;40.58;;;;;;;25.08;48.00;101338.22;4441060;32;20072;-68
2021/09/07 04:25:13;;;;;;;73.62;39.13;;;;;;;24.99;48.12;101336.41;4443512;32;20458;-68
2021/09/07 04:27:39;;;;;;;76.95;39.58;;;;;;;25.00;48.06;101337.16;4443380;32;20112;-68
2021/09/07 04:30:06;;;;;;;76.32;41.37;;;;;;;24.97;48.41;101338.22;4440033;32;20399;-68
2021/09/07 04:32:32;;;;;;;71.40;39.42;;;;;;;25.01;48.34;101333.75;4444706;32;20931;-68
2021/09/07 04:34:57;;;;;;;78.32;41.15;;;;;;;24.79;48.58;101336.66;4440674;32;20084;-68
2021/09/07 04:37:23;;;;;;;75.37;41.67;;;;;;;24.82;48.40;101340.59;4441185;32;20102;-68
2021/09/07 04:39:50;;;;;;;74.50;40.45;;;;;;;24.87;48.40;101334.03;4451616;32;20111;-68
2021/09/07 04:42:17;;;;;;;73.85;40.10;;;;;;;24.82;48.60;101338.50;4446870;32;20072;-68
2021/09/07 04:44:43;;;;;;;78.03;41.15;;;;;;;25.02;47.96;101334.56;4444323;32;20428;-68
2021/09/07 04:47:09;;;;;;;79.37;42.17;;;;;;;24.91;48.40;101341.09;4447080;32;20159;-68
2021/09/07 04:49:35;;;;;;;85.20;43.70;;;;;;;24.86;48.45;101349.75;4449339;32;20635;-68
2021/09/07 04:52:00;;;;;;;78.78;42.25;;;;;;;24.83;48.14;101345.84;4446845;32;20059;-68
2021/09/07 04:54:26;;;;;;;80.47;43.92;;;;;;;24.84;48.45;101338.75;4444775;32;20048;-68
2021/09/07 04:56:52;;;;;;;84.60;42.20;;;;;;;24.60;49.08;101338.44;4449068;32;20057;-68
2021/09/07 04:59:17;;;;;;;86.07;43.50;;;;;;;24.77;48.79;101341.38;4445305;32;20139;-68
2021/09/07 05:01:43;;;;;;;84.30;42.78;;;;;;;24.82;48.50;101341.38;4441847;32;20079;-68
2021/09/07 05:04:09;;;;;;;84.68;44.30;;;;;;;24.88;48.37;101345.03;4442755;32;20406;-68
2021/09/07 05:06:35;;;;;;;85.35;42.35;;;;;;;24.96;48.18;101339.53;4448728;32;20454;-68
2021/09/07 05:09:01;;;;;;;83.90;44.38;;;;;;;24.83;48.32;101331.44;4444673;32;20038;-68
2021/09/07 05:11:26;;;;;;;79.85;41.00;;;;;;;24.90;48.05;101330.91;4428919;32;20111;-68
2021/09/07 05:13:52;;;;;;;79.03;42.20;;;;;;;25.04;47.81;101338.47;4447772;32;20470;-68
2021/09/07 05:16:18;;;;;;;80.28;41.70;;;;;;;24.97;47.91;101341.87;4443995;32;20137;-68
2021/09/07 05:18:44;;;;;;;79.72;41.05;;;;;;;25.06;47.68;101332.19;4443760;32;20498;-68
2021/09/07 05:21:09;;;;;;;77.68;41.33;;;;;;;25.01;47.83;101335.88;4446930;32;20072;-68
2021/09/07 05:23:37;;;;;;;82.47;42.62;;;;;;;24.94;47.93;101334.31;4449353;32;20025;-68
2021/09/07 05:26:03;;;;;;;83.95;41.50;;;;;;;24.97;47.82;101329.56;4445843;32;20040;-68
2021/09/07 05:28:29;;;;;;;79.07;42.45;;;;;;;24.92;47.84;101333.25;4449130;32;20097;-68
2021/09/07 05:30:57;;;;;;;85.25;44.10;;;;;;;24.89;48.20;101337.97;4449176;32;20037;-68
2021/09/07 05:33:24;;;;;;;81.95;43.30;;;;;;;24.89;48.18;101334.31;4450064;32;20079;-68
2021/09/07 05:35:51;;;;;;;89.55;44.53;;;;;;;24.98;47.96;101334.81;4446755;32;20041;-68
2021/09/07 05:38:16;;;;;;;80.75;40.97;;;;;;;24.95;47.95;101335.09;4446615;32;20457;-68
2021/09/07 05:40:42;;;;;;;85.65;42.62;;;;;;;24.89;48.12;101331.44;4447443;32;20056;-68
2021/09/07 05:43:08;;;;;;;83.45;42.85;;;;;;;24.87;47.88;101337.72;4445168;32;20132;-68
2021/09/07 05:45:35;;;;;;;90.28;44.90;;;;;;;24.98;47.58;101334.81;4446963;32;20068;-68
2021/09/07 05:48:00;;;;;;;89.07;44.33;;;;;;;24.99;47.62;101345.03;4446824;32;20092;-68
2021/09/07 05:50:27;;;;;;;87.65;44.35;;;;;;;24.96;47.82;101340.34;4428561;32;20438;-68
2021/09/07 05:52:52;;;;;;;92.07;44.88;;;;;;;25.12;47.68;101344.50;4444082;32;20049;-68
2021/09/07 05:55:18;;;;;;;88.12;43.85;;;;;;;25.07;47.61;101340.31;4448070;32;20111;-68
2021/09/07 05:57:44;;;;;;;86.05;43.00;;;;;;;25.21;47.34;101347.09;4437182;32;20189;-68
2021/09/07 06:00:11;;;;;;;90.45;43.90;;;;;;;25.29;47.32;101354.69;4445428;32;20072;-68
2021/09/07 06:02:38;;;;;;;85.12;42.17;;;;;;;25.41;47.07;101354.69;4445201;32;20044;-68
2021/09/07 06:05:04;;;;;;;80.80;42.62;;;;;;;25.33;47.14;101345.81;4443421;32;20073;-68
2021/09/07 06:07:31;;;;;;;82.00;42.10;;;;;;;25.23;47.23;101353.13;4449979;32;20358;-68
2021/09/07 06:09:58;;;;;;;79.37;42.10;;;;;;;25.37;47.05;101357.06;4442073;32;20091;-68
2021/09/07 06:12:24;;;;;;;82.97;42.20;;;;;;;25.49;46.57;101365.16;4445293;32;20045;-68
2021/09/07 06:14:51;;;;;;;83.05;42.75;;;;;;;25.44;46.71;101360.19;4443760;32;20041;-68
2021/09/07 06:17:16;;;;;;;80.25;40.75;;;;;;;25.43;46.67;101364.38;4444152;32;20056;-68
2021/09/07 06:19:42;;;;;;;77.25;39.42;;;;;;;25.51;46.60;101364.63;4447684;32;20040;-68
2021/09/07 06:22:08;;;;;;;83.07;41.10;;;;;;;25.33;46.95;101371.72;4438077;32;20042;-68
2021/09/07 06:24:33;;;;;;;85.25;42.08;;;;;;;25.48;46.66;101368.56;4441580;32;20397;-68
2021/09/07 06:27:00;;;;;;;76.47;40.80;;;;;;;25.56;46.54;101369.59;4440775;32;20331;-68
2021/09/07 06:29:26;;;;;;;84.85;40.85;;;;;;;25.80;46.35;101359.03;4443595;32;20048;-68
2021/09/07 06:31:52;;;;;;;82.70;41.97;;;;;;;25.71;46.65;101362.19;4438434;32;20533;-68
2021/09/07 06:34:24;;;;;;;87.57;41.22;;;;;;;25.90;46.24;101363.19;4435456;32;20049;-72
2021/09/07 06:36:51;;;;;;;86.30;42.45;;;;;;;25.95;46.19;101365.25;4437586;32;20068;-68
2021/09/07 06:39:17;;;;;;;75.78;38.45;;;;;;;26.14;45.97;101366.25;4434906;32;20033;-68
2021/09/07 06:41:42;;;;;;;80.85;40.15;;;;;;;26.12;46.03;101368.91;4440890;32;20348;-68
2021/09/07 06:44:08;;;;;;;81.53;40.38;;;;;;;26.31;45.52;101366.16;4440601;32;20312;-68
2021/09/07 06:46:34;;;;;;;77.82;39.65;;;;;;;26.33;45.35;101357.75;4439633;32;20395;-69
2021/09/07 06:49:00;;;;;;;79.90;39.40;;;;;;;26.37;45.30;101361.94;4434687;32;20425;-69
2021/09/07 06:51:25;;;;;;;74.65;37.92;;;;;;;26.45;45.17;101367.94;4432616;32;20432;-69
2021/09/07 06:53:51;;;;;;;79.43;40.35;;;;;;;26.58;45.03;101362.31;4432127;32;20086;-69
2021/09/07 06:56:16;;;;;;;85.60;41.13;;;;;;;26.56;45.24;101364.94;4435968;32;20084;-68
2021/09/07 06:58:42;;;;;;;78.78;40.55;;;;;;;26.51;45.47;101374.44;4424611;32;20044;-69
2021/09/07 07:01:08;;;;;;;84.07;42.00;;;;;;;26.72;45.00;101367.75;4426680;32;20080;-69
2021/09/07 07:03:35;;;;;;;85.82;40.40;;;;;;;26.69;45.30;101362.28;4432874;32;20133;-69
2021/09/07 07:06:00;;;;;;;80.87;41.08;;;;;;;26.88;45.02;101361.06;4433054;32;20115;-69
2021/09/07 07:08:26;;;;;;;81.70;41.33;;;;;;;27.00;44.77;101362.53;4427073;32;20101;-68
2021/09/07 07:10:52;;;;;;;84.45;40.25;;;;;;;27.16;44.66;101357.94;4433536;32;20085;-68
2021/09/07 07:13:18;;;;;;;76.05;40.65;;;;;;;27.20;44.38;101364.19;4435963;32;20125;-68
2021/09/07 07:15:44;;;;;;;69.85;37.58;;;;;;;27.48;44.03;101356.06;4433208;32;20053;-68
2021/09/07 07:18:09;;;;;;;77.65;39.13;;;;;;;27.62;44.01;101354.84;4432705;32;20111;-69
2021/09/07 07:20:35;;;;;;;78.82;37.78;;;;;;;27.73;43.71;101357.59;4431648;32;20075;-69
2021/09/07 07:23:01;;;;;;;74.28;37.80;;;;;;;27.80;43.47;101348.34;4432228;32;20042;-69
2021/09/07 07:25:27;;;;;;;72.45;36.10;;;;;;;27.93;43.67;101339.78;4432108;32;20068;-69
2021/09/07 07:27:53;;;;;;;69.18;36.88;;;;;;;28.11;43.43;101347.69;4432880;32;20092;-70
2021/09/07 07:30:21;;;;;;;68.43;37.13;;;;;;;28.16;43.07;101337.38;4428820;32;20112;-69
2021/09/07 07:32:47;;;;;;;75.57;38.42;;;;;;;28.37;43.00;101341.25;4431603;32;20069;-69
2021/09/07 07:35:13;;;;;;;65.65;35.35;;;;;;;28.55;42.65;101349.19;4431049;32;20137;-69
2021/09/07 07:37:38;;;;;;;75.35;38.13;;;;;;;28.65;42.52;101342.44;4433429;32;20601;-69
2021/09/07 07:40:05;;;;;;;73.78;36.60;;;;;;;28.64;42.19;101340.09;4433562;32;20696;-70
2021/09/07 07:42:31;;;;;;;170.77;103.07;;;;;;;28.81;42.32;101346.41;4430979;32;20487;-70
2021/09/07 07:44:57;;;;;;;81.68;43.47;;;;;;;29.03;41.83;101352.59;4416806;32;20080;-70
2021/09/07 07:47:23;;;;;;;74.75;40.97;;;;;;;29.05;41.85;101354.19;4430210;32;20085;-70
2021/09/07 07:49:48;;;;;;;70.28;40.47;;;;;;;29.24;41.64;101357.81;4432207;32;20093;-69
2021/09/07 07:52:14;;;;;;;77.97;40.75;;;;;;;29.39;41.29;101364.63;4430449;32;20037;-70
2021/09/07 07:54:40;;;;;;;71.82;39.60;;;;;;;29.49;41.27;101362.06;4433770;32;20130;-71
2021/09/07 07:57:07;;;;;;;81.07;40.10;;;;;;;29.60;41.16;101358.97;4430383;32;20100;-69
2021/09/07 07:59:33;;;;;;;82.62;41.70;;;;;;;29.96;40.50;101351.38;4431548;32;20085;-70
2021/09/07 08:01:59;;;;;;;73.93;40.28;;;;;;;30.05;40.21;101353.81;4430068;32;20165;-70
2021/09/07 08:04:25;;;;;;;73.60;38.45;;;;;;;30.25;39.86;101353.91;4417738;32;20073;-70
2021/09/07 08:06:51;;;;;;;75.00;39.70;;;;;;;30.46;39.45;101351.06;4431713;32;20076;-70
2021/09/07 08:09:16;;;;;;;69.57;36.75;;;;;;;30.59;39.23;101351.81;4434252;32;20073;-69
2021/09/07 08:11:42;;;;;;;64.90;34.15;;;;;;;30.75;38.73;101358.59;4431494;32;20484;-69
2021/09/07 08:14:09;;;;;;;73.32;35.35;;;;;;;30.90;38.79;101355.84;4434562;32;20148;-69
2021/09/07 08:16:34;;;;;;;58.10;31.90;;;;;;;30.86;38.74;101348.81;4435178;32;20088;-68
2021/09/07 08:19:00;;;;;;;59.92;31.00;;;;;;;31.00;38.67;101350.31;4436145;32;20110;-69
2021/09/07 08:21:28;;;;;;;61.30;32.28;;;;;;;31.16;38.43;101357.84;4431666;32;20049;-68
2021/09/07 08:23:56;;;;;;;56.65;29.80;;;;;;;31.36;37.90;101359.97;4433732;32;20045;-68
2021/09/07 08:26:22;;;;;;;47.47;27.62;;;;;;;31.57;37.82;101360.69;4438955;32;20421;-68
2021/09/07 08:28:47;;;;;;;46.72;28.20;;;;;;;31.82;37.68;101362.66;4435679;32;20049;-69
2021/09/07 08:31:13;;;;;;;48.35;28.27;;;;;;;31.94;37.22;101358.03;4433584;32;20737;-68
2021/09/07 08:33:38;;;;;;;46.35;26.60;;;;;;;32.24;36.70;101357.44;4435299;32;20430;-68
2021/09/07 08:36:05;;;;;;;40.45;24.85;;;;;;;32.43;36.54;101355.00;4435239;32;20549;-68
2021/09/07 08:38:30;;;;;;;49.75;28.38;;;;;;;32.94;35.81;101363.69;4434080;32;20060;-68
2021/09/07 08:40:57;;;;;;;53.08;28.87;;;;;;;33.17;35.12;101361.56;4436417;32;20061;-68
2021/09/07 08:43:25;;;;;;;44.35;25.62;;;;;;;33.64;34.51;101365.44;4436611;32;20089;-68
2021/09/07 08:45:52;;;;;;;43.75;24.67;;;;;;;33.94;34.33;101371.25;4434695;32;20061;-68
2021/09/07 08:48:21;;;;;;;48.08;26.62;;;;;;;34.54;33.56;101364.41;4434772;32;20080;-68
2021/09/07 08:50:47;;;;;;;46.15;27.05;;;;;;;34.74;33.12;101365.44;4437893;32;20084;-68
2021/09/07 08:53:13;;;;;;;45.92;25.77;;;;;;;34.95;32.57;101365.94;4436429;32;20037;-68
2021/09/07 08:55:40;;;;;;;43.67;25.80;;;;;;;35.22;32.06;101358.13;4437212;32;20068;-68
2021/09/07 08:58:07;;;;;;;51.05;26.02;;;;;;;35.24;31.68;101356.13;4433271;32;20056;-68
2021/09/07 09:00:33;;;;;;;42.85;25.27;;;;;;;35.57;31.32;101365.63;4436456;32;20061;-68
2021/09/07 09:03:14;;;;;;;48.87;27.33;;;;;;;35.60;30.94;101368.13;4437473;32;20076;-68
2021/09/07 09:05:42;;;;;;;44.58;25.85;;;;;;;35.95;30.42;101366.81;4438639;32;20081;-69
2021/09/07 09:08:13;;;;;;;44.28;26.00;;;;;;;36.19;30.52;101362.22;4437745;32;20053;-69
2021/09/07 09:10:40;;;;;;;42.65;24.70;;;;;;;36.42;30.03;101353.94;4435212;32;20391;-68
2021/09/07 09:13:10;;;;;;;43.25;25.30;;;;;;;36.52;29.82;101360.66;4436764;32;20064;-68
2021/09/07 09:15:36;;;;;;;37.78;23.40;;;;;;;37.04;29.19;101359.09;4434384;32;20111;-68
2021/09/07 09:18:06;;;;;;;42.83;23.35;;;;;;;36.79;29.32;101367.31;4433233;32;20061;-68
2021/09/07 09:20:32;;;;;;;46.53;25.00;;;;;;;37.14;29.18;101368.72;4436021;32;20041;-68
2021/09/07 09:23:00;;;;;;;39.38;22.65;;;;;;;37.05;29.14;101363.56;4436004;32;20148;-68
2021/09/07 09:33:24;;;;;;;37.08;21.92;;;;;;;38.36;27.92;101365.87;3970525;32;15022582;-70
2021/09/07 09:35:55;;;;;;;37.00;21.85;;;;;;;38.36;27.92;101365.87;4423007;32;20099;-68
2021/09/07 09:38:25;;;;;;;38.65;21.40;;;;;;;38.26;27.61;101371.00;4420867;32;20060;-68
2021/09/07 09:40:56;;;;;;;35.58;20.90;;;;;;;38.72;27.19;101368.63;4422684;32;20077;-68
2021/09/07 09:43:33;;;;;;;40.35;21.02;;;;;;;38.77;26.65;101361.63;4425645;32;20072;-68
2021/09/07 09:46:17;;;;;;;35.88;22.37;;;;;;;39.08;26.54;101367.59;4423843;32;20080;-68
2021/09/07 09:48:42;;;;;;;34.58;22.30;;;;;;;39.31;26.24;101361.91;4423859;32;20122;-68
2021/09/07 09:51:08;;;;;;;32.45;20.37;;;;;;;39.14;26.33;101362.16;4422699;32;20554;-68
2021/09/07 09:53:37;;;;;;;34.80;20.62;;;;;;;39.43;26.18;101359.84;4422055;32;20084;-69
2021/09/07 09:56:04;;;;;;;30.65;20.27;;;;;;;39.58;25.93;101354.34;4424657;32;20112;-70
2021/09/07 09:58:31;;;;;;;29.73;18.58;;;;;;;39.82;25.79;101358.22;4423009;32;20077;-69
2021/09/07 10:00:56;;;;;;;29.12;19.02;;;;;;;39.79;25.52;101359.47;4424028;32;20144;-68
2021/09/07 10:03:23;;;;;;;35.33;19.12;;;;;;;39.78;25.27;101363.03;4423329;32;20138;-68
2021/09/07 10:05:48;;;;;;;35.53;20.50;;;;;;;39.66;25.57;101360.78;4423693;32;20183;-68
2021/09/07 10:08:15;;;;;;;33.00;20.02;;;;;;;39.44;25.89;101352.56;4422567;32;20084;-68
2021/09/07 10:11:09;;;;;;;33.58;19.17;;;;;;;39.07;26.43;101355.06;4422293;32;20553;-68
2021/09/07 10:13:38;;;;;;;34.90;19.35;;;;;;;39.47;26.08;101348.34;4422307;32;20053;-68
2021/09/07 10:16:10;;;;;;;32.88;18.50;;;;;;;38.98;26.80;101347.03;4423210;32;20167;-68
2021/09/07 10:24:53;;;;;;;34.33;19.75;;;;;;;39.05;26.54;101345.31;3979461;32;15027325;-70
2021/09/07 10:27:21;;;;;;;36.75;21.45;;;;;;;39.34;26.49;101343.75;4427534;32;20132;-70
2021/09/07 10:29:48;;;;;;;32.25;18.45;;;;;;;39.24;26.53;101348.16;4427533;32;20061;-68
2021/09/07 10:32:26;;;;;;;34.28;19.17;;;;;;;39.45;26.51;101336.44;4427727;32;20041;-69
2021/09/07 10:35:11;;;;;;;35.17;19.10;;;;;;;39.65;26.23;101332.72;4429755;32;20450;-69
2021/09/07 10:37:57;;;;;;;;;;;;;;;39.70;26.11;101327.88;4426982;32;20046;-69
2021/09/07 10:40:40;;;;;;;34.30;18.42;;;;;;;39.97;25.86;101330.50;4428732;32;19991;-69
2021/09/07 10:43:05;;;;;;;24.77;16.25;;;;;;;40.17;25.43;101328.91;4427412;32;20101;-68
2021/09/07 10:45:31;;;;;;;28.05;16.17;;;;;;;39.60;26.11;101333.84;4427771;32;20085;-69
2021/09/07 10:47:58;;;;;;;26.80;15.18;;;;;;;39.58;25.92;101327.81;4429181;32;20461;-69
2021/09/07 10:50:59;;;;;;;36.92;17.62;;;;;;;39.59;26.17;101325.63;4425373;32;20334;-68
2021/09/07 10:53:25;;;;;;;27.45;16.40;;;;;;;40.09;25.50;101319.53;4424970;32;20091;-68
2021/09/07 10:55:51;;;;;;;28.95;16.60;;;;;;;39.07;26.72;101304.22;4428758;32;20486;-68
2021/09/07 10:58:33;;;;;;;29.33;17.12;;;;;;;39.30;26.34;101316.94;4429718;32;20720;-68
2021/09/07 11:01:27;;;;;;;25.37;16.65;;;;;;;39.95;25.81;101316.38;4431166;32;20070;-68
2021/09/07 11:04:28;;;;;;;24.55;14.85;;;;;;;40.11;25.47;101307.84;4424096;32;20125;-69
2021/09/07 11:06:54;;;;;;;25.75;15.82;;;;;;;40.84;24.49;101309.13;4425344;32;20054;-69
2021/09/07 11:09:51;;;;;;;24.12;15.85;;;;;;;40.87;24.62;101301.16;4429607;32;20484;-69
2021/09/07 11:12:34;;;;;;;27.23;16.30;;;;;;;41.51;23.91;101296.41;4426284;32;20195;-69
2021/09/07 11:15:04;;;;;;;25.10;15.65;;;;;;;41.76;23.55;101302.38;4428408;32;20424;-69
2021/09/07 11:17:31;;;;;;;20.60;14.98;;;;;;;42.41;22.92;101295.94;4421236;32;20049;-69
2021/09/07 11:20:07;;;;;;;21.58;14.48;;;;;;;42.54;22.76;101289.28;4427017;32;20094;-69
2021/09/07 11:22:35;;;;;;;19.10;12.40;;;;;;;42.66;22.53;101298.84;4425689;32;20501;-69
2021/09/07 11:35:55;;;;;;;14.68;10.20;;;;;;;42.06;22.74;101289.44;3988510;31;15019114;-69